Aérodrome :
LOGIN :

S'inscrire | Disclaimer

   EN    FR    IT 

 










Légende :    VFR   VFR Marginal   IFR   IFR Intensif   IFR Très Intensif
Visi : 
Plafond : 
>= 8 km
>= 3000ft
5 à 8 km
1000 à 3000 ft
1500m à 5 km
500 à 1000 ft
800 à 1500m
200 à 500 ft
< 800m
< 200 ft
Symboles :   Orages  Brouillard  Fortes neiges  Fortes précipitations  Vent > 20 kt
SIGMETs :   Divers  Orages  Givrage  Turbulence  Onde Orograph.  Cendres Volcan.







- Altitude de l'aérodrome : 299 ft
- Code IATA : EDM
- Voir les cartes d'approche


LFRI - La Roche Sur Yon - Les Ajoncs

DERNIER METAR :
  • 201530Z AUTO 33004KT 290V060 CAVOK 23/11 Q1025 NOSIG

METARs EXPIRÉS :
  • 201500Z AUTO 02008KT 340V050 CAVOK 21/11 Q1025 NOSIG
  • 201430Z AUTO 36006KT 320V030 CAVOK 23/11 Q1025 NOSIG
  • 201400Z AUTO 34006KT 280V050 CAVOK 23/11 Q1025 NOSIG
  • 201330Z AUTO 01007KT 340V050 9999 FEW044 BKN052 21/11 Q1025 NOSIG
  • 201300Z AUTO 33003KT 270V060 9999 FEW044 SCT052 23/12 Q1025 NOSIG

TAF TAF LFRI
Valide du 20 à 12h jusqu'au 21 à 12h UTC


201100Z 2012/2112 36008KT CAVOK
Pas de NOTAMs connus pour ce terrain.



MET'MAP, la Météo Aéronautique d'un coup d'oeil ! - Copyright ORBIFLY Décembre 2007 - Disclaimer

ORBIFLY MET'MAP TEAM :

Programmation & Développement : Alexandra Zaïnal
Conception & Développement : Baudouin d'Aumeries
Co-Programmation & Développement : Marc-Olivier Méhu
Soutien technique & logistique : Manuel Goepfert

Contact : metmap@orbifly.com




SOURCES & CREDITS :

   NOAA